createdAt,value
2017-08-10T00:01:55.360Z,83.10
2017-08-10T00:04:25.464Z,83.40
2017-08-10T00:06:54.784Z,82.70
2017-08-10T00:09:24.849Z,82.80
2017-08-10T00:11:54.174Z,82.80
2017-08-10T00:14:23.482Z,83.30
2017-08-10T00:16:52.796Z,83.20
2017-08-10T00:19:22.092Z,84.30
2017-08-10T00:21:51.420Z,83.00
2017-08-10T00:24:21.493Z,83.10
2017-08-10T00:26:50.816Z,83.00
2017-08-10T00:29:20.121Z,83.40
2017-08-10T00:31:49.462Z,82.30
2017-08-10T00:34:18.764Z,82.30
2017-08-10T00:36:48.074Z,83.20
2017-08-10T00:39:17.400Z,83.30
2017-08-10T00:41:46.712Z,82.90
2017-08-10T00:44:16.040Z,82.50
2017-08-10T00:46:46.109Z,83.10
2017-08-10T00:49:15.424Z,83.00
2017-08-10T00:51:44.755Z,82.60
2017-08-10T00:54:14.838Z,83.80
2017-08-10T00:56:44.137Z,83.10
2017-08-10T00:59:13.472Z,82.50
2017-08-10T01:01:42.809Z,82.00
2017-08-10T01:04:12.132Z,81.40
2017-08-10T01:06:41.450Z,81.30
2017-08-10T01:09:10.829Z,81.20
2017-08-10T01:11:40.164Z,83.40
2017-08-10T01:14:09.470Z,81.40
2017-08-10T01:16:38.797Z,83.40
2017-08-10T01:19:08.880Z,82.40
2017-08-10T01:21:38.212Z,82.40
2017-08-10T01:24:08.308Z,83.40
2017-08-10T01:26:37.613Z,82.70
2017-08-10T01:29:06.919Z,83.40
2017-08-10T01:31:36.245Z,82.90
2017-08-10T01:34:05.556Z,83.30
2017-08-10T01:36:34.913Z,83.10
2017-08-10T01:39:04.320Z,82.90
2017-08-10T01:41:33.616Z,82.90
2017-08-10T01:44:02.941Z,81.70
2017-08-10T01:46:33.013Z,82.20
2017-08-10T01:49:02.341Z,82.20
2017-08-10T01:51:31.644Z,83.00
2017-08-10T01:54:00.956Z,82.10
2017-08-10T01:56:30.268Z,82.90
2017-08-10T01:59:00.356Z,83.10
2017-08-10T02:01:29.687Z,82.50
2017-08-10T02:03:59.011Z,82.30
2017-08-10T02:06:28.328Z,82.50
2017-08-10T02:08:57.656Z,82.70
2017-08-10T02:11:26.975Z,82.20
2017-08-10T02:13:56.295Z,83.70
2017-08-10T02:16:26.448Z,82.70
2017-08-10T02:18:55.743Z,82.70
2017-08-10T02:21:25.080Z,82.60
2017-08-10T02:23:54.388Z,81.90
2017-08-10T02:26:23.724Z,82.40
2017-08-10T02:28:53.800Z,83.30
2017-08-10T02:31:23.140Z,82.80
2017-08-10T02:33:52.457Z,82.90
2017-08-10T02:36:22.549Z,82.90
2017-08-10T02:38:51.885Z,82.70
2017-08-10T02:41:21.199Z,83.00
2017-08-10T02:43:50.528Z,82.80
2017-08-10T02:46:19.869Z,82.70
2017-08-10T02:48:49.192Z,82.30
2017-08-10T02:51:18.504Z,82.50
2017-08-10T02:53:47.828Z,81.70
2017-08-10T02:56:17.141Z,82.30
2017-08-10T02:58:46.577Z,81.70
2017-08-10T03:01:15.897Z,82.50
2017-08-10T03:03:46.020Z,80.70
2017-08-10T03:06:15.340Z,80.60
2017-08-10T03:08:44.651Z,80.80
2017-08-10T03:11:13.985Z,81.70
2017-08-10T03:13:43.291Z,81.40
2017-08-10T03:16:12.613Z,82.00
2017-08-10T03:18:41.934Z,82.70
2017-08-10T03:21:11.265Z,83.20
2017-08-10T03:23:40.571Z,82.80
2017-08-10T03:26:09.897Z,82.80
2017-08-10T03:28:39.228Z,82.60
2017-08-10T03:31:08.567Z,82.60
2017-08-10T03:33:37.871Z,82.30
2017-08-10T03:36:07.185Z,82.30
2017-08-10T03:38:39.288Z,82.10
2017-08-10T03:41:08.591Z,82.50
2017-08-10T03:43:37.934Z,82.50
2017-08-10T03:46:07.244Z,83.20
2017-08-10T03:48:36.589Z,82.90
2017-08-10T03:51:05.917Z,82.70
2017-08-10T03:53:35.248Z,83.20
2017-08-10T03:56:04.553Z,82.90
2017-08-10T03:58:33.880Z,82.50
2017-08-10T04:01:04.345Z,82.90
2017-08-10T04:03:33.672Z,83.30
2017-08-10T04:06:03.013Z,83.00
2017-08-10T04:08:32.356Z,83.50
2017-08-10T04:11:01.779Z,83.50
2017-08-10T04:13:31.129Z,83.10
2017-08-10T04:16:00.552Z,83.70
2017-08-10T04:18:30.616Z,83.00
2017-08-10T04:20:59.953Z,82.90
2017-08-10T04:23:29.400Z,83.10
2017-08-10T04:25:58.751Z,83.50
2017-08-10T04:28:28.121Z,83.30
2017-08-10T04:30:57.464Z,82.80
2017-08-10T04:33:26.787Z,82.50
2017-08-10T04:35:56.141Z,82.80
2017-08-10T04:38:25.536Z,83.00
2017-08-10T04:40:54.879Z,82.70
2017-08-10T04:43:24.223Z,82.80
2017-08-10T04:45:53.582Z,81.70
2017-08-10T04:48:23.676Z,82.70
2017-08-10T04:50:53.042Z,82.70
2017-08-10T04:53:22.424Z,82.60
2017-08-10T04:55:51.737Z,82.40
2017-08-10T04:58:21.102Z,83.00
2017-08-10T05:00:50.418Z,82.80
2017-08-10T05:03:19.762Z,82.20
2017-08-10T05:05:49.091Z,82.70
2017-08-10T05:08:18.422Z,83.40
2017-08-10T05:10:47.740Z,82.90
2017-08-10T05:13:17.072Z,83.10
2017-08-10T05:15:46.392Z,82.10
2017-08-10T05:18:15.744Z,81.90
2017-08-10T05:20:45.086Z,82.40
2017-08-10T05:23:14.397Z,81.70
2017-08-10T05:25:43.741Z,82.50
2017-08-10T05:28:13.063Z,82.70
2017-08-10T05:30:42.425Z,82.60
2017-08-10T05:33:12.560Z,82.70
2017-08-10T05:35:41.884Z,82.60
2017-08-10T05:38:11.232Z,82.90
2017-08-10T05:40:40.576Z,82.70
2017-08-10T05:43:09.897Z,83.10
2017-08-10T05:45:39.230Z,82.90
2017-08-10T05:48:08.558Z,83.00
2017-08-10T05:50:37.898Z,83.50
2017-08-10T05:53:07.246Z,82.80
2017-08-10T05:55:36.597Z,82.80
2017-08-10T05:58:05.918Z,84.20
2017-08-10T06:00:35.256Z,84.90
2017-08-10T06:03:05.377Z,83.50
2017-08-10T06:05:35.466Z,83.80
2017-08-10T06:08:04.801Z,83.90
2017-08-10T06:10:34.899Z,82.20
2017-08-10T06:13:04.250Z,82.20
2017-08-10T06:15:33.571Z,82.50
2017-08-10T06:18:02.912Z,83.30
2017-08-10T06:20:33.172Z,83.80
2017-08-10T06:23:02.516Z,83.10
2017-08-10T06:25:31.870Z,83.00
2017-08-10T06:28:01.377Z,82.90
2017-08-10T06:30:30.704Z,82.90
2017-08-10T06:33:00.051Z,82.60
2017-08-10T06:35:29.371Z,82.60
2017-08-10T06:37:59.511Z,84.00
2017-08-10T06:40:28.841Z,84.00
2017-08-10T06:42:58.181Z,84.50
2017-08-10T06:45:27.516Z,84.20
2017-08-10T06:47:57.601Z,84.70
2017-08-10T06:50:26.930Z,84.60
2017-08-10T06:52:56.277Z,83.20
2017-08-10T06:55:25.637Z,84.60
2017-08-10T06:57:54.958Z,84.40
2017-08-10T07:00:24.307Z,83.70
2017-08-10T07:02:53.613Z,83.90
2017-08-10T07:05:22.945Z,84.30
2017-08-10T07:07:52.266Z,85.50
2017-08-10T07:10:21.602Z,85.30
2017-08-10T07:12:50.944Z,84.50
2017-08-10T07:15:21.053Z,84.60
2017-08-10T07:17:51.133Z,84.80
2017-08-10T07:20:20.463Z,84.70
2017-08-10T07:22:49.768Z,85.20
2017-08-10T07:25:19.110Z,85.40
2017-08-10T07:27:48.424Z,85.10
2017-08-10T07:30:17.804Z,84.80
2017-08-10T07:32:47.109Z,85.30
2017-08-10T07:35:16.482Z,85.00
2017-08-10T07:37:46.583Z,87.00
2017-08-10T07:40:15.905Z,86.20
2017-08-10T07:42:45.227Z,84.10
2017-08-10T07:45:14.537Z,84.90
2017-08-10T07:47:43.868Z,85.00
2017-08-10T07:50:13.193Z,85.30
2017-08-10T07:52:42.531Z,86.10
2017-08-10T07:55:11.844Z,85.70
2017-08-10T07:57:41.169Z,85.20
2017-08-10T08:00:10.513Z,85.40
2017-08-10T08:02:39.858Z,85.50
2017-08-10T08:05:09.173Z,83.40
2017-08-10T08:07:38.505Z,84.80
2017-08-10T08:10:07.812Z,82.30
2017-08-10T08:12:37.133Z,84.50
2017-08-10T08:15:06.460Z,83.60
2017-08-10T08:17:35.841Z,83.20
2017-08-10T08:20:05.186Z,83.90
2017-08-10T08:22:34.520Z,84.10
2017-08-10T08:25:03.878Z,84.40
2017-08-10T08:27:33.193Z,84.50
2017-08-10T08:30:02.526Z,85.10
2017-08-10T08:32:31.832Z,85.10
2017-08-10T08:35:01.201Z,85.50
2017-08-10T08:37:30.534Z,85.30
2017-08-10T08:39:59.876Z,84.90
2017-08-10T08:42:29.345Z,85.50
2017-08-10T08:44:58.714Z,84.90
2017-08-10T08:47:28.042Z,85.10
2017-08-10T08:49:57.425Z,85.00
2017-08-10T08:52:26.732Z,85.40
2017-08-10T08:54:56.044Z,86.70
2017-08-10T08:57:25.427Z,85.00
2017-08-10T08:59:54.737Z,85.40
2017-08-10T09:02:24.073Z,86.50
2017-08-10T09:04:53.390Z,86.30
2017-08-10T09:07:23.472Z,85.50
2017-08-10T09:09:52.794Z,85.60
2017-08-10T09:12:22.212Z,85.30
2017-08-10T09:14:51.527Z,85.80
2017-08-10T09:17:20.866Z,86.40
2017-08-10T09:19:50.906Z,86.60
2017-08-10T09:22:20.251Z,86.30
2017-08-10T09:24:49.577Z,85.80
2017-08-10T09:27:18.915Z,84.80
2017-08-10T09:29:48.266Z,84.60
2017-08-10T09:32:17.598Z,84.80
2017-08-10T09:34:46.974Z,84.50
2017-08-10T09:37:16.301Z,84.30
2017-08-10T09:39:45.627Z,84.20
2017-08-10T09:42:14.975Z,84.20
2017-08-10T09:44:45.025Z,84.20
2017-08-10T09:47:14.337Z,83.40
2017-08-10T09:49:43.665Z,83.30
2017-08-10T09:52:13.088Z,83.40
2017-08-10T09:54:42.406Z,83.80
2017-08-10T09:57:11.732Z,84.20
2017-08-10T09:59:41.053Z,83.90
2017-08-10T10:02:10.362Z,84.80
2017-08-10T10:04:40.469Z,84.50
2017-08-10T10:07:09.783Z,83.60
2017-08-10T10:09:39.889Z,84.70
2017-08-10T10:12:09.205Z,84.80
2017-08-10T10:14:39.309Z,84.20
2017-08-10T10:17:08.644Z,84.20
2017-08-10T10:19:37.949Z,83.90
2017-08-10T10:22:07.274Z,85.00
2017-08-10T10:24:36.584Z,84.80
2017-08-10T10:27:05.921Z,84.70
2017-08-10T10:29:35.230Z,84.50
2017-08-10T10:32:04.556Z,84.40
2017-08-10T10:34:33.945Z,83.90
2017-08-10T10:37:04.045Z,82.20
2017-08-10T10:39:33.357Z,82.20
2017-08-10T10:42:02.681Z,83.00
2017-08-10T10:44:32.046Z,82.40
2017-08-10T10:47:01.384Z,82.50
2017-08-10T10:49:30.708Z,82.50
2017-08-10T10:52:00.050Z,81.70
2017-08-10T10:54:29.365Z,82.90
2017-08-10T10:56:58.686Z,82.20
2017-08-10T10:59:28.785Z,82.00
2017-08-10T11:01:58.096Z,82.00
2017-08-10T11:04:27.427Z,82.60
2017-08-10T11:06:56.748Z,82.90
2017-08-10T11:09:26.076Z,83.00
2017-08-10T11:11:55.393Z,82.10
2017-08-10T11:14:24.746Z,82.70
2017-08-10T11:16:54.057Z,82.50
2017-08-10T11:19:23.426Z,82.90
2017-08-10T11:21:52.742Z,82.50
2017-08-10T11:24:22.111Z,82.80
2017-08-10T11:26:51.425Z,83.10
2017-08-10T11:29:21.529Z,83.20
2017-08-10T11:31:51.868Z,83.20
2017-08-10T11:34:21.216Z,84.40
2017-08-10T11:36:50.536Z,83.60
2017-08-10T11:39:19.855Z,83.60
2017-08-10T11:41:49.176Z,83.30
2017-08-10T11:44:19.253Z,83.10
2017-08-10T11:46:48.579Z,83.00
2017-08-10T11:49:18.653Z,82.70
2017-08-10T11:51:48.005Z,82.50
2017-08-10T11:54:18.087Z,83.70
2017-08-10T11:56:47.429Z,83.20
2017-08-10T11:59:17.509Z,82.50
2017-08-10T12:01:46.832Z,82.40
2017-08-10T12:04:16.139Z,81.80
2017-08-10T12:06:46.260Z,83.10
2017-08-10T12:09:15.581Z,82.30
2017-08-10T12:11:45.722Z,82.10
2017-08-10T12:14:15.031Z,82.10
2017-08-10T12:16:44.347Z,81.40
2017-08-10T12:19:13.677Z,81.40
2017-08-10T12:21:43.093Z,81.90
2017-08-10T12:24:13.277Z,82.60
2017-08-10T12:26:42.573Z,82.70
2017-08-10T12:29:12.009Z,82.60
2017-08-10T12:31:41.312Z,83.20
2017-08-10T12:34:10.641Z,83.50
2017-08-10T12:36:39.968Z,82.40
2017-08-10T12:39:09.303Z,82.40
2017-08-10T12:41:38.617Z,80.90
2017-08-10T12:44:07.953Z,81.10
2017-08-10T12:46:37.256Z,81.10
2017-08-10T12:49:06.606Z,80.70
2017-08-10T12:51:35.921Z,81.70
2017-08-10T12:54:05.230Z,81.80
2017-08-10T12:56:35.288Z,81.60
2017-08-10T12:59:04.668Z,81.50
2017-08-10T13:01:34.001Z,80.60
2017-08-10T13:04:04.081Z,80.50
2017-08-10T13:06:33.406Z,80.40
2017-08-10T13:09:02.722Z,79.70
2017-08-10T13:11:32.817Z,80.90
2017-08-10T13:14:02.125Z,80.50
2017-08-10T13:16:31.452Z,79.70
2017-08-10T13:19:01.585Z,79.10
2017-08-10T13:21:31.682Z,78.30
2017-08-10T13:24:01.005Z,78.30
2017-08-10T13:26:31.118Z,78.70
2017-08-10T13:29:01.271Z,80.20
2017-08-10T13:31:30.601Z,80.30
2017-08-10T13:34:00.229Z,80.00
2017-08-10T13:36:29.553Z,80.30
2017-08-10T13:38:59.678Z,78.50
2017-08-10T13:41:28.974Z,78.50
2017-08-10T13:43:59.086Z,79.70
2017-08-10T13:46:29.168Z,79.90
2017-08-10T13:48:58.504Z,79.90
2017-08-10T13:51:27.984Z,80.00
2017-08-10T13:53:57.319Z,79.80
2017-08-10T13:56:27.418Z,80.10
2017-08-10T13:58:56.830Z,80.10
2017-08-10T14:01:26.139Z,81.70
2017-08-10T14:03:56.052Z,81.30
2017-08-10T14:06:26.128Z,81.40
2017-08-10T14:08:55.465Z,82.20
2017-08-10T14:11:24.774Z,79.80
2017-08-10T14:13:54.096Z,80.70
2017-08-10T14:16:23.429Z,80.90
2017-08-10T14:18:52.816Z,80.80
2017-08-10T14:21:22.156Z,80.40
2017-08-10T14:23:51.456Z,80.40
2017-08-10T14:26:20.840Z,79.70
2017-08-10T14:28:50.153Z,79.10
2017-08-10T14:31:19.489Z,78.80
2017-08-10T14:33:49.572Z,79.90
2017-08-10T14:36:19.627Z,79.20
2017-08-10T14:38:48.947Z,79.40
2017-08-10T14:41:19.000Z,78.60
2017-08-10T14:43:48.358Z,79.10
2017-08-10T14:46:18.457Z,79.00
2017-08-10T14:48:47.796Z,79.00
2017-08-10T14:51:17.202Z,78.70
2017-08-10T14:53:46.530Z,79.00
2017-08-10T14:56:15.837Z,79.40
2017-08-10T14:58:45.166Z,79.50
2017-08-10T15:01:14.482Z,79.90
2017-08-10T15:03:44.575Z,79.90
2017-08-10T15:06:13.885Z,79.90
2017-08-10T15:08:43.234Z,81.60
2017-08-10T15:11:12.545Z,80.60
2017-08-10T15:13:41.869Z,79.70
2017-08-10T15:16:11.973Z,80.30
2017-08-10T15:18:41.325Z,78.90
2017-08-10T15:21:11.425Z,79.70
2017-08-10T15:23:40.748Z,78.90
2017-08-10T15:26:10.853Z,79.20
2017-08-10T15:28:40.225Z,79.20
2017-08-10T15:31:09.549Z,78.90
2017-08-10T15:33:38.857Z,78.30
2017-08-10T15:36:08.189Z,79.00
2017-08-10T15:38:37.504Z,75.90
2017-08-10T15:41:08.136Z,76.50
2017-08-10T15:43:37.446Z,77.80
2017-08-10T15:46:06.776Z,75.70
2017-08-10T15:48:36.094Z,77.20
2017-08-10T15:51:05.600Z,77.30
2017-08-10T15:53:35.023Z,77.10
2017-08-10T15:56:05.117Z,77.90
2017-08-10T15:58:34.444Z,77.20
2017-08-10T16:01:03.780Z,77.20
2017-08-10T16:03:33.234Z,77.40
2017-08-10T16:06:02.755Z,78.70
2017-08-10T16:08:32.867Z,78.80
2017-08-10T16:11:02.202Z,78.90
2017-08-10T16:13:31.533Z,76.50
2017-08-10T16:16:00.897Z,77.30
2017-08-10T16:18:30.453Z,76.60
2017-08-10T16:21:08.641Z,78.10
2017-08-10T16:26:14.948Z,77.10
2017-08-10T16:28:45.283Z,77.70
2017-08-10T16:33:50.593Z,76.80
2017-08-10T16:36:31.242Z,75.00
2017-08-10T16:39:03.975Z,75.00
2017-08-10T16:41:35.420Z,77.10
2017-08-10T16:46:41.586Z,75.40
2017-08-10T16:49:13.443Z,74.20
2017-08-10T16:51:43.162Z,75.40
2017-08-10T16:54:12.534Z,76.10
2017-08-10T16:56:41.920Z,76.80
2017-08-10T16:59:11.269Z,76.40
2017-08-10T17:01:40.564Z,76.80
2017-08-10T17:04:09.891Z,77.20
2017-08-10T17:06:39.216Z,76.70
2017-08-10T17:09:08.525Z,76.30
2017-08-10T17:11:37.863Z,77.20
2017-08-10T17:14:07.192Z,76.70
2017-08-10T17:16:36.524Z,76.60
2017-08-10T17:19:05.898Z,76.90
2017-08-10T17:21:35.227Z,76.40
2017-08-10T17:24:04.538Z,77.30
2017-08-10T17:26:33.884Z,75.90
2017-08-10T17:29:03.213Z,76.30
2017-08-10T17:31:33.311Z,75.50
2017-08-10T17:34:02.624Z,75.50
2017-08-10T17:36:32.180Z,75.60
2017-08-10T17:39:01.583Z,74.60
2017-08-10T17:41:31.530Z,74.20
2017-08-10T17:44:00.917Z,73.40
2017-08-10T17:46:30.253Z,74.70
2017-08-10T17:48:59.713Z,76.00
2017-08-10T17:51:29.030Z,75.50
2017-08-10T17:53:58.354Z,76.50
2017-08-10T17:56:27.677Z,75.10
2017-08-10T17:58:57.772Z,75.40
2017-08-10T18:01:27.093Z,74.70
2017-08-10T18:03:57.333Z,75.20
2017-08-10T18:06:27.423Z,75.50
2017-08-10T18:08:56.861Z,76.30
2017-08-10T18:11:26.357Z,75.50
2017-08-10T18:13:55.714Z,76.00
2017-08-10T18:16:25.079Z,74.60
2017-08-10T18:18:54.390Z,74.20
2017-08-10T18:21:23.733Z,75.10
2017-08-10T18:23:53.628Z,76.00
2017-08-10T18:26:22.979Z,76.10
2017-08-10T18:28:52.385Z,76.30
2017-08-10T18:31:21.801Z,76.40
2017-08-10T18:33:51.109Z,75.80
2017-08-10T18:36:20.437Z,74.90
2017-08-10T18:38:49.754Z,75.50
2017-08-10T18:41:19.072Z,75.30
2017-08-10T18:43:48.380Z,75.00
2017-08-10T18:46:17.712Z,75.60
2017-08-10T18:48:47.017Z,76.30
2017-08-10T18:51:16.355Z,76.20
2017-08-10T18:53:45.661Z,76.80
2017-08-10T18:56:14.990Z,75.60
2017-08-10T18:58:44.335Z,75.80
2017-08-10T19:01:13.660Z,76.20
2017-08-10T19:03:43.031Z,76.10
2017-08-10T19:06:12.432Z,75.80
2017-08-10T19:08:41.798Z,75.90
2017-08-10T19:11:11.113Z,76.30
2017-08-10T19:13:40.445Z,76.30
2017-08-10T19:16:09.810Z,76.10
2017-08-10T19:18:39.128Z,75.60
2017-08-10T19:21:08.533Z,74.90
2017-08-10T19:23:37.857Z,73.30
2017-08-10T19:26:07.162Z,73.90
2017-08-10T19:28:36.494Z,74.20
2017-08-10T19:31:07.666Z,73.70
2017-08-10T19:33:36.978Z,73.50
2017-08-10T19:36:06.288Z,74.40
2017-08-10T19:38:35.649Z,73.30
2017-08-10T19:41:05.729Z,73.80
2017-08-10T19:43:35.657Z,73.10
2017-08-10T19:46:04.997Z,72.90
2017-08-10T19:48:34.324Z,72.80
2017-08-10T19:51:03.654Z,72.50
2017-08-10T19:53:33.584Z,72.20
2017-08-10T19:56:02.917Z,72.40
2017-08-10T19:58:32.985Z,72.30
2017-08-10T20:01:02.308Z,72.30
2017-08-10T20:03:31.628Z,73.40
2017-08-10T20:06:01.729Z,73.00
2017-08-10T20:08:31.033Z,73.00
2017-08-10T20:11:00.385Z,73.30
2017-08-10T20:13:29.680Z,73.10
2017-08-10T20:15:58.993Z,73.10
2017-08-10T20:18:28.359Z,73.00
2017-08-10T20:20:58.477Z,73.50
2017-08-10T20:23:28.598Z,73.20
2017-08-10T20:25:57.918Z,72.90
2017-08-10T20:28:27.245Z,73.20
2017-08-10T20:30:56.553Z,72.70
2017-08-10T20:33:25.904Z,73.30
2017-08-10T20:35:55.977Z,74.20
2017-08-10T20:38:25.319Z,74.20
2017-08-10T20:40:54.621Z,75.30
2017-08-10T20:43:23.929Z,75.40
2017-08-10T20:45:54.024Z,74.40
2017-08-10T20:48:23.336Z,74.50
2017-08-10T20:51:00.100Z,73.80
2017-08-10T20:53:29.405Z,73.50
2017-08-10T20:55:58.871Z,73.80
2017-08-10T20:58:28.181Z,73.80
2017-08-10T21:00:57.513Z,73.70
2017-08-10T21:03:26.826Z,73.90
2017-08-10T21:05:56.253Z,73.80
2017-08-10T21:08:25.588Z,74.60
2017-08-10T21:10:54.937Z,74.90
2017-08-10T21:13:24.258Z,74.50
2017-08-10T21:15:53.577Z,75.30
2017-08-10T21:18:22.903Z,74.40
2017-08-10T21:20:52.235Z,74.60
2017-08-10T21:23:25.663Z,74.90
2017-08-10T21:25:55.083Z,75.10
2017-08-10T21:28:24.525Z,75.00
2017-08-10T21:30:53.886Z,75.10
2017-08-10T21:33:23.344Z,75.60
2017-08-10T21:35:53.445Z,75.40
2017-08-10T21:38:22.805Z,75.40
2017-08-10T21:40:52.144Z,75.80
2017-08-10T21:43:21.461Z,75.60
2017-08-10T21:45:50.761Z,75.70
2017-08-10T21:48:20.107Z,75.50
2017-08-10T21:50:49.412Z,75.20
2017-08-10T21:53:18.984Z,74.60
2017-08-10T21:55:48.334Z,74.50
2017-08-10T21:58:17.656Z,74.40
2017-08-10T22:00:47.062Z,74.70
2017-08-10T22:03:16.468Z,75.10
2017-08-10T22:05:45.799Z,75.30
2017-08-10T22:08:15.910Z,75.60
2017-08-10T22:10:45.241Z,75.50
2017-08-10T22:13:14.561Z,75.60
2017-08-10T22:15:43.886Z,76.40
2017-08-10T22:18:13.256Z,75.80
2017-08-10T22:20:42.591Z,76.40
2017-08-10T22:23:11.897Z,75.80
2017-08-10T22:25:41.239Z,76.30
2017-08-10T22:28:11.304Z,77.20
2017-08-10T22:30:40.645Z,77.20
2017-08-10T22:33:09.974Z,77.20
2017-08-10T22:35:39.282Z,76.90
2017-08-10T22:38:09.196Z,77.00
2017-08-10T22:40:38.521Z,76.70
2017-08-10T22:43:07.986Z,76.90
2017-08-10T22:45:37.373Z,77.40
2017-08-10T22:48:07.476Z,78.00
2017-08-10T22:50:36.794Z,78.00
2017-08-10T22:53:06.145Z,78.80
2017-08-10T22:55:35.505Z,78.40
2017-08-10T22:58:05.647Z,78.10
2017-08-10T23:00:35.089Z,78.20
2017-08-10T23:03:04.401Z,78.00
2017-08-10T23:05:33.749Z,77.90
2017-08-10T23:08:03.117Z,77.70
2017-08-10T23:10:32.496Z,77.40
2017-08-10T23:13:01.805Z,77.30
2017-08-10T23:15:31.184Z,77.10
2017-08-10T23:18:00.566Z,76.40
2017-08-10T23:20:29.896Z,76.10
2017-08-10T23:22:59.201Z,76.90
2017-08-10T23:25:28.520Z,76.40
2017-08-10T23:27:57.861Z,77.00
2017-08-10T23:30:27.222Z,77.30
2017-08-10T23:32:56.555Z,76.60
2017-08-10T23:35:26.694Z,76.80
2017-08-10T23:37:56.051Z,76.10
2017-08-10T23:40:25.393Z,76.40
2017-08-10T23:42:54.730Z,76.50
2017-08-10T23:45:24.061Z,77.00
2017-08-10T23:47:53.429Z,77.20
2017-08-10T23:50:22.731Z,77.20
2017-08-10T23:52:52.066Z,77.50
2017-08-10T23:55:21.372Z,77.90
2017-08-10T23:57:50.700Z,77.90
